sensor_id;sensor_type;location;lat;lon;timestamp;P1;durP1;ratioP1;P2;durP2;ratioP2
3781;SDS011;6881;49.962;7.718;2022-10-26T00:01:10;3.77;;;2.20;;
3781;SDS011;6881;49.962;7.718;2022-10-26T00:03:37;7.50;;;5.30;;
3781;SDS011;6881;49.962;7.718;2022-10-26T00:06:07;6.07;;;3.40;;
3781;SDS011;6881;49.962;7.718;2022-10-26T00:08:35;6.67;;;5.17;;
3781;SDS011;6881;49.962;7.718;2022-10-26T00:11:01;6.70;;;3.97;;
3781;SDS011;6881;49.962;7.718;2022-10-26T00:13:27;9.60;;;4.50;;
3781;SDS011;6881;49.962;7.718;2022-10-26T00:15:52;4.17;;;3.77;;
3781;SDS011;6881;49.962;7.718;2022-10-26T00:18:18;4.20;;;2.50;;
3781;SDS011;6881;49.962;7.718;2022-10-26T00:20:43;3.33;;;2.70;;
3781;SDS011;6881;49.962;7.718;2022-10-26T00:23:08;2.43;;;2.00;;
3781;SDS011;6881;49.962;7.718;2022-10-26T00:25:34;1.70;;;1.53;;
3781;SDS011;6881;49.962;7.718;2022-10-26T00:27:59;4.60;;;1.90;;
3781;SDS011;6881;49.962;7.718;2022-10-26T00:30:24;2.33;;;1.63;;
3781;SDS011;6881;49.962;7.718;2022-10-26T00:32:50;3.20;;;2.00;;
3781;SDS011;6881;49.962;7.718;2022-10-26T00:35:15;3.13;;;1.90;;
3781;SDS011;6881;49.962;7.718;2022-10-26T00:37:40;4.97;;;2.10;;
3781;SDS011;6881;49.962;7.718;2022-10-26T00:40:06;5.43;;;2.17;;
3781;SDS011;6881;49.962;7.718;2022-10-26T00:42:31;7.73;;;2.33;;
3781;SDS011;6881;49.962;7.718;2022-10-26T00:44:57;3.10;;;1.83;;
3781;SDS011;6881;49.962;7.718;2022-10-26T00:47:36;3.27;;;1.90;;
3781;SDS011;6881;49.962;7.718;2022-10-26T00:50:08;4.93;;;2.30;;
3781;SDS011;6881;49.962;7.718;2022-10-26T00:52:36;2.80;;;2.07;;
3781;SDS011;6881;49.962;7.718;2022-10-26T00:55:02;6.20;;;2.33;;
3781;SDS011;6881;49.962;7.718;2022-10-26T00:57:28;6.27;;;3.00;;
3781;SDS011;6881;49.962;7.718;2022-10-26T00:59:53;4.90;;;2.70;;
3781;SDS011;6881;49.962;7.718;2022-10-26T01:02:20;3.43;;;1.80;;
3781;SDS011;6881;49.962;7.718;2022-10-26T01:04:45;2.80;;;2.43;;
3781;SDS011;6881;49.962;7.718;2022-10-26T01:07:11;3.17;;;2.40;;
3781;SDS011;6881;49.962;7.718;2022-10-26T01:09:36;6.50;;;2.07;;
3781;SDS011;6881;49.962;7.718;2022-10-26T01:12:02;3.77;;;2.30;;
3781;SDS011;6881;49.962;7.718;2022-10-26T01:14:27;4.20;;;2.73;;
3781;SDS011;6881;49.962;7.718;2022-10-26T01:27:39;3.63;;;2.50;;
3781;SDS011;6881;49.962;7.718;2022-10-26T01:30:40;4.63;;;3.07;;
3781;SDS011;6881;49.962;7.718;2022-10-26T01:41:27;2.83;;;2.50;;
3781;SDS011;6881;49.962;7.718;2022-10-26T01:43:57;4.33;;;2.63;;
3781;SDS011;6881;49.962;7.718;2022-10-26T01:46:26;3.87;;;2.20;;
3781;SDS011;6881;49.962;7.718;2022-10-26T01:48:54;4.53;;;2.00;;
3781;SDS011;6881;49.962;7.718;2022-10-26T01:51:23;3.77;;;2.20;;
3781;SDS011;6881;49.962;7.718;2022-10-26T01:53:49;6.20;;;2.70;;
3781;SDS011;6881;49.962;7.718;2022-10-26T01:56:21;2.60;;;2.00;;
3781;SDS011;6881;49.962;7.718;2022-10-26T01:59:02;3.33;;;1.60;;
3781;SDS011;6881;49.962;7.718;2022-10-26T02:01:58;2.80;;;1.90;;
3781;SDS011;6881;49.962;7.718;2022-10-26T02:13:16;6.30;;;2.27;;
3781;SDS011;6881;49.962;7.718;2022-10-26T02:15:55;6.00;;;2.40;;
3781;SDS011;6881;49.962;7.718;2022-10-26T02:20:50;5.53;;;2.50;;
3781;SDS011;6881;49.962;7.718;2022-10-26T02:23:18;13.57;;;2.30;;
3781;SDS011;6881;49.962;7.718;2022-10-26T02:25:48;8.87;;;2.20;;
3781;SDS011;6881;49.962;7.718;2022-10-26T02:28:16;4.63;;;2.80;;
3781;SDS011;6881;49.962;7.718;2022-10-26T02:30:43;8.40;;;2.57;;
3781;SDS011;6881;49.962;7.718;2022-10-26T02:33:10;4.07;;;2.33;;
3781;SDS011;6881;49.962;7.718;2022-10-26T02:35:37;3.13;;;2.13;;
3781;SDS011;6881;49.962;7.718;2022-10-26T02:38:05;3.83;;;2.60;;
3781;SDS011;6881;49.962;7.718;2022-10-26T02:40:33;3.30;;;2.43;;
3781;SDS011;6881;49.962;7.718;2022-10-26T02:42:59;5.33;;;3.00;;
3781;SDS011;6881;49.962;7.718;2022-10-26T02:45:29;11.23;;;3.17;;
3781;SDS011;6881;49.962;7.718;2022-10-26T02:47:57;3.43;;;2.60;;
3781;SDS011;6881;49.962;7.718;2022-10-26T02:50:25;7.30;;;2.83;;
3781;SDS011;6881;49.962;7.718;2022-10-26T02:55:31;7.80;;;3.13;;
3781;SDS011;6881;49.962;7.718;2022-10-26T02:58:03;5.00;;;2.37;;
3781;SDS011;6881;49.962;7.718;2022-10-26T03:00:32;5.27;;;2.93;;
3781;SDS011;6881;49.962;7.718;2022-10-26T03:02:57;6.47;;;3.07;;
3781;SDS011;6881;49.962;7.718;2022-10-26T03:05:24;4.67;;;3.20;;
3781;SDS011;6881;49.962;7.718;2022-10-26T03:07:51;3.93;;;2.90;;
3781;SDS011;6881;49.962;7.718;2022-10-26T03:10:17;4.77;;;3.87;;
3781;SDS011;6881;49.962;7.718;2022-10-26T03:12:42;6.47;;;3.93;;
3781;SDS011;6881;49.962;7.718;2022-10-26T03:15:08;9.23;;;3.27;;
3781;SDS011;6881;49.962;7.718;2022-10-26T03:17:34;6.93;;;3.00;;
3781;SDS011;6881;49.962;7.718;2022-10-26T03:19:59;7.40;;;3.10;;
3781;SDS011;6881;49.962;7.718;2022-10-26T03:22:24;6.67;;;3.50;;
3781;SDS011;6881;49.962;7.718;2022-10-26T03:24:50;4.77;;;2.93;;
3781;SDS011;6881;49.962;7.718;2022-10-26T03:27:15;6.60;;;3.67;;
3781;SDS011;6881;49.962;7.718;2022-10-26T03:29:40;5.37;;;4.50;;
3781;SDS011;6881;49.962;7.718;2022-10-26T03:32:06;8.40;;;4.10;;
3781;SDS011;6881;49.962;7.718;2022-10-26T03:34:31;10.90;;;3.70;;
3781;SDS011;6881;49.962;7.718;2022-10-26T03:36:57;7.50;;;3.07;;
3781;SDS011;6881;49.962;7.718;2022-10-26T03:39:22;6.63;;;3.47;;
3781;SDS011;6881;49.962;7.718;2022-10-26T03:41:47;5.60;;;3.20;;
3781;SDS011;6881;49.962;7.718;2022-10-26T03:44:13;7.17;;;3.33;;
3781;SDS011;6881;49.962;7.718;2022-10-26T03:46:38;5.43;;;3.50;;
3781;SDS011;6881;49.962;7.718;2022-10-26T03:49:04;5.43;;;3.27;;
3781;SDS011;6881;49.962;7.718;2022-10-26T03:51:29;7.07;;;4.40;;
3781;SDS011;6881;49.962;7.718;2022-10-26T03:53:54;6.20;;;3.60;;
3781;SDS011;6881;49.962;7.718;2022-10-26T03:56:20;8.27;;;4.87;;
3781;SDS011;6881;49.962;7.718;2022-10-26T03:58:45;8.53;;;4.50;;
3781;SDS011;6881;49.962;7.718;2022-10-26T04:01:10;8.67;;;4.90;;
3781;SDS011;6881;49.962;7.718;2022-10-26T04:03:36;7.27;;;4.33;;
3781;SDS011;6881;49.962;7.718;2022-10-26T04:06:01;6.80;;;4.27;;
3781;SDS011;6881;49.962;7.718;2022-10-26T04:08:27;9.57;;;4.00;;
3781;SDS011;6881;49.962;7.718;2022-10-26T04:10:52;10.87;;;3.83;;
3781;SDS011;6881;49.962;7.718;2022-10-26T04:13:18;5.17;;;4.47;;
3781;SDS011;6881;49.962;7.718;2022-10-26T04:15:43;9.60;;;4.00;;
3781;SDS011;6881;49.962;7.718;2022-10-26T04:18:08;6.00;;;3.73;;
3781;SDS011;6881;49.962;7.718;2022-10-26T04:20:37;7.20;;;3.90;;
3781;SDS011;6881;49.962;7.718;2022-10-26T04:23:03;7.03;;;3.60;;
3781;SDS011;6881;49.962;7.718;2022-10-26T04:25:30;8.10;;;3.30;;
3781;SDS011;6881;49.962;7.718;2022-10-26T04:27:55;5.17;;;4.20;;
3781;SDS011;6881;49.962;7.718;2022-10-26T04:30:21;7.13;;;4.00;;
3781;SDS011;6881;49.962;7.718;2022-10-26T04:32:46;10.27;;;4.10;;
3781;SDS011;6881;49.962;7.718;2022-10-26T04:35:12;8.53;;;4.40;;
3781;SDS011;6881;49.962;7.718;2022-10-26T04:37:37;4.60;;;3.77;;
3781;SDS011;6881;49.962;7.718;2022-10-26T04:40:03;6.53;;;4.20;;
3781;SDS011;6881;49.962;7.718;2022-10-26T04:42:29;16.40;;;6.27;;
3781;SDS011;6881;49.962;7.718;2022-10-26T04:44:57;10.33;;;5.50;;
3781;SDS011;6881;49.962;7.718;2022-10-26T04:47:23;11.73;;;6.47;;
3781;SDS011;6881;49.962;7.718;2022-10-26T04:49:48;8.90;;;5.70;;
3781;SDS011;6881;49.962;7.718;2022-10-26T04:52:14;12.93;;;5.90;;
3781;SDS011;6881;49.962;7.718;2022-10-26T04:54:39;7.73;;;5.13;;
3781;SDS011;6881;49.962;7.718;2022-10-26T04:57:04;8.50;;;5.80;;
3781;SDS011;6881;49.962;7.718;2022-10-26T04:59:30;13.47;;;8.37;;
3781;SDS011;6881;49.962;7.718;2022-10-26T05:01:55;12.93;;;7.07;;
3781;SDS011;6881;49.962;7.718;2022-10-26T05:04:20;14.73;;;6.73;;
3781;SDS011;6881;49.962;7.718;2022-10-26T05:06:46;8.70;;;5.77;;
3781;SDS011;6881;49.962;7.718;2022-10-26T05:09:11;9.73;;;5.90;;
3781;SDS011;6881;49.962;7.718;2022-10-26T05:11:36;11.53;;;6.87;;
3781;SDS011;6881;49.962;7.718;2022-10-26T05:14:03;14.50;;;9.20;;
3781;SDS011;6881;49.962;7.718;2022-10-26T05:16:28;24.50;;;13.20;;
3781;SDS011;6881;49.962;7.718;2022-10-26T05:18:53;39.37;;;20.13;;
3781;SDS011;6881;49.962;7.718;2022-10-26T05:21:19;44.17;;;25.63;;
3781;SDS011;6881;49.962;7.718;2022-10-26T05:23:50;62.63;;;29.90;;
3781;SDS011;6881;49.962;7.718;2022-10-26T05:26:18;58.10;;;30.50;;
3781;SDS011;6881;49.962;7.718;2022-10-26T05:28:43;51.17;;;26.87;;
3781;SDS011;6881;49.962;7.718;2022-10-26T05:31:09;30.30;;;16.43;;
3781;SDS011;6881;49.962;7.718;2022-10-26T05:33:34;37.83;;;17.70;;
3781;SDS011;6881;49.962;7.718;2022-10-26T05:35:59;21.40;;;13.93;;
3781;SDS011;6881;49.962;7.718;2022-10-26T05:38:25;16.10;;;12.23;;
3781;SDS011;6881;49.962;7.718;2022-10-26T05:40:51;18.00;;;10.20;;
3781;SDS011;6881;49.962;7.718;2022-10-26T05:43:18;16.90;;;10.10;;
3781;SDS011;6881;49.962;7.718;2022-10-26T05:45:44;16.30;;;10.37;;
3781;SDS011;6881;49.962;7.718;2022-10-26T05:48:09;13.60;;;9.20;;
3781;SDS011;6881;49.962;7.718;2022-10-26T05:50:35;16.80;;;10.30;;
3781;SDS011;6881;49.962;7.718;2022-10-26T05:53:00;17.00;;;9.47;;
3781;SDS011;6881;49.962;7.718;2022-10-26T05:55:26;16.80;;;8.10;;
3781;SDS011;6881;49.962;7.718;2022-10-26T05:57:51;13.00;;;7.47;;
3781;SDS011;6881;49.962;7.718;2022-10-26T06:00:18;13.73;;;8.90;;
3781;SDS011;6881;49.962;7.718;2022-10-26T06:05:17;13.53;;;10.30;;
3781;SDS011;6881;49.962;7.718;2022-10-26T06:07:46;13.50;;;10.10;;
3781;SDS011;6881;49.962;7.718;2022-10-26T06:10:12;12.93;;;9.50;;
3781;SDS011;6881;49.962;7.718;2022-10-26T06:12:37;16.23;;;10.30;;
3781;SDS011;6881;49.962;7.718;2022-10-26T06:15:03;18.47;;;12.23;;
3781;SDS011;6881;49.962;7.718;2022-10-26T06:28:32;18.90;;;11.20;;
3781;SDS011;6881;49.962;7.718;2022-10-26T06:31:02;18.47;;;13.80;;
3781;SDS011;6881;49.962;7.718;2022-10-26T06:33:27;27.40;;;19.37;;
3781;SDS011;6881;49.962;7.718;2022-10-26T06:38:33;48.67;;;33.53;;
3781;SDS011;6881;49.962;7.718;2022-10-26T06:40:59;63.43;;;41.10;;
3781;SDS011;6881;49.962;7.718;2022-10-26T06:43:26;60.33;;;42.93;;
3781;SDS011;6881;49.962;7.718;2022-10-26T06:48:29;41.87;;;28.73;;
3781;SDS011;6881;49.962;7.718;2022-10-26T06:50:59;35.70;;;26.17;;
3781;SDS011;6881;49.962;7.718;2022-10-26T06:55:56;29.63;;;16.80;;
3781;SDS011;6881;49.962;7.718;2022-10-26T06:58:22;22.53;;;17.83;;
3781;SDS011;6881;49.962;7.718;2022-10-26T07:00:52;21.00;;;15.47;;
3781;SDS011;6881;49.962;7.718;2022-10-26T07:03:18;16.50;;;13.27;;
3781;SDS011;6881;49.962;7.718;2022-10-26T07:05:44;17.07;;;12.50;;
3781;SDS011;6881;49.962;7.718;2022-10-26T07:08:10;14.90;;;10.80;;
3781;SDS011;6881;49.962;7.718;2022-10-26T07:10:36;16.37;;;13.03;;
3781;SDS011;6881;49.962;7.718;2022-10-26T07:13:05;13.37;;;11.97;;
3781;SDS011;6881;49.962;7.718;2022-10-26T07:15:32;17.93;;;12.40;;
3781;SDS011;6881;49.962;7.718;2022-10-26T07:17:57;14.43;;;10.93;;
3781;SDS011;6881;49.962;7.718;2022-10-26T07:20:23;20.70;;;14.40;;
3781;SDS011;6881;49.962;7.718;2022-10-26T07:22:55;19.50;;;14.23;;
3781;SDS011;6881;49.962;7.718;2022-10-26T07:25:21;24.77;;;14.73;;
3781;SDS011;6881;49.962;7.718;2022-10-26T07:27:48;23.70;;;13.20;;
3781;SDS011;6881;49.962;7.718;2022-10-26T07:30:14;19.93;;;11.30;;
3781;SDS011;6881;49.962;7.718;2022-10-26T07:32:39;19.07;;;12.20;;
3781;SDS011;6881;49.962;7.718;2022-10-26T07:35:05;19.80;;;14.07;;
3781;SDS011;6881;49.962;7.718;2022-10-26T07:37:30;16.30;;;12.30;;
3781;SDS011;6881;49.962;7.718;2022-10-26T07:39:55;18.50;;;12.53;;
3781;SDS011;6881;49.962;7.718;2022-10-26T07:42:21;17.63;;;11.80;;
3781;SDS011;6881;49.962;7.718;2022-10-26T07:44:46;19.17;;;12.50;;
3781;SDS011;6881;49.962;7.718;2022-10-26T07:47:12;24.47;;;12.23;;
3781;SDS011;6881;49.962;7.718;2022-10-26T07:49:37;13.20;;;10.40;;
3781;SDS011;6881;49.962;7.718;2022-10-26T07:52:02;18.43;;;12.60;;
3781;SDS011;6881;49.962;7.718;2022-10-26T07:54:28;16.53;;;12.00;;
3781;SDS011;6881;49.962;7.718;2022-10-26T07:56:53;15.40;;;10.23;;
3781;SDS011;6881;49.962;7.718;2022-10-26T07:59:18;12.50;;;8.20;;
3781;SDS011;6881;49.962;7.718;2022-10-26T08:01:44;12.67;;;8.47;;
3781;SDS011;6881;49.962;7.718;2022-10-26T08:04:09;11.70;;;8.23;;
3781;SDS011;6881;49.962;7.718;2022-10-26T08:06:35;13.43;;;8.37;;
3781;SDS011;6881;49.962;7.718;2022-10-26T08:09:00;11.90;;;8.73;;
3781;SDS011;6881;49.962;7.718;2022-10-26T08:11:26;9.60;;;7.10;;
3781;SDS011;6881;49.962;7.718;2022-10-26T08:13:52;13.23;;;8.80;;
3781;SDS011;6881;49.962;7.718;2022-10-26T08:16:18;11.43;;;7.60;;
3781;SDS011;6881;49.962;7.718;2022-10-26T08:18:46;9.23;;;7.57;;
3781;SDS011;6881;49.962;7.718;2022-10-26T08:21:12;11.47;;;7.17;;
3781;SDS011;6881;49.962;7.718;2022-10-26T08:23:38;8.77;;;7.87;;
3781;SDS011;6881;49.962;7.718;2022-10-26T08:26:03;7.50;;;6.60;;
3781;SDS011;6881;49.962;7.718;2022-10-26T08:28:29;5.70;;;5.07;;
3781;SDS011;6881;49.962;7.718;2022-10-26T08:30:54;11.67;;;6.40;;
3781;SDS011;6881;49.962;7.718;2022-10-26T08:33:20;6.43;;;5.83;;
3781;SDS011;6881;49.962;7.718;2022-10-26T08:35:46;12.20;;;5.67;;
3781;SDS011;6881;49.962;7.718;2022-10-26T08:38:11;6.37;;;5.30;;
3781;SDS011;6881;49.962;7.718;2022-10-26T08:40:38;6.97;;;5.07;;
3781;SDS011;6881;49.962;7.718;2022-10-26T08:43:25;4.80;;;4.40;;
3781;SDS011;6881;49.962;7.718;2022-10-26T08:48:24;6.30;;;4.13;;
3781;SDS011;6881;49.962;7.718;2022-10-26T08:50:55;6.97;;;4.53;;
3781;SDS011;6881;49.962;7.718;2022-10-26T08:53:39;4.63;;;3.70;;
3781;SDS011;6881;49.962;7.718;2022-10-26T08:56:14;3.93;;;3.40;;
3781;SDS011;6881;49.962;7.718;2022-10-26T08:58:46;5.50;;;4.10;;
3781;SDS011;6881;49.962;7.718;2022-10-26T09:01:17;6.30;;;3.43;;
3781;SDS011;6881;49.962;7.718;2022-10-26T09:03:42;5.20;;;3.20;;
3781;SDS011;6881;49.962;7.718;2022-10-26T09:09:09;6.20;;;2.70;;
3781;SDS011;6881;49.962;7.718;2022-10-26T09:12:00;3.00;;;2.47;;
3781;SDS011;6881;49.962;7.718;2022-10-26T09:14:31;4.40;;;2.70;;
3781;SDS011;6881;49.962;7.718;2022-10-26T09:20:16;7.50;;;2.90;;
3781;SDS011;6881;49.962;7.718;2022-10-26T09:25:25;3.43;;;2.20;;
3781;SDS011;6881;49.962;7.718;2022-10-26T09:27:59;4.20;;;2.93;;
3781;SDS011;6881;49.962;7.718;2022-10-26T09:30:26;3.33;;;2.53;;
3781;SDS011;6881;49.962;7.718;2022-10-26T09:32:56;2.83;;;2.50;;
3781;SDS011;6881;49.962;7.718;2022-10-26T09:35:27;4.70;;;2.80;;
3781;SDS011;6881;49.962;7.718;2022-10-26T09:41:19;3.23;;;2.50;;
3781;SDS011;6881;49.962;7.718;2022-10-26T09:43:53;4.43;;;2.53;;
3781;SDS011;6881;49.962;7.718;2022-10-26T09:49:12;2.90;;;2.40;;
3781;SDS011;6881;49.962;7.718;2022-10-26T09:51:40;5.00;;;2.73;;
3781;SDS011;6881;49.962;7.718;2022-10-26T09:54:12;4.00;;;2.17;;
3781;SDS011;6881;49.962;7.718;2022-10-26T09:56:39;4.87;;;4.00;;
3781;SDS011;6881;49.962;7.718;2022-10-26T09:59:05;5.40;;;4.73;;
3781;SDS011;6881;49.962;7.718;2022-10-26T10:01:34;3.80;;;3.40;;
3781;SDS011;6881;49.962;7.718;2022-10-26T10:06:40;5.67;;;3.60;;
3781;SDS011;6881;49.962;7.718;2022-10-26T10:11:55;5.43;;;2.97;;
3781;SDS011;6881;49.962;7.718;2022-10-26T10:14:22;6.53;;;3.10;;
3781;SDS011;6881;49.962;7.718;2022-10-26T10:16:55;3.93;;;3.07;;
3781;SDS011;6881;49.962;7.718;2022-10-26T10:19:26;3.70;;;2.50;;
3781;SDS011;6881;49.962;7.718;2022-10-26T10:21:59;3.70;;;3.07;;
3781;SDS011;6881;49.962;7.718;2022-10-26T10:24:36;3.47;;;3.17;;
3781;SDS011;6881;49.962;7.718;2022-10-26T10:27:15;4.07;;;3.77;;
3781;SDS011;6881;49.962;7.718;2022-10-26T10:29:43;3.77;;;2.90;;
3781;SDS011;6881;49.962;7.718;2022-10-26T10:32:17;7.50;;;3.13;;
3781;SDS011;6881;49.962;7.718;2022-10-26T10:34:44;3.80;;;3.37;;
3781;SDS011;6881;49.962;7.718;2022-10-26T10:39:57;6.13;;;2.97;;
3781;SDS011;6881;49.962;7.718;2022-10-26T10:42:26;2.87;;;2.63;;
3781;SDS011;6881;49.962;7.718;2022-10-26T10:44:54;7.13;;;3.83;;
3781;SDS011;6881;49.962;7.718;2022-10-26T10:50:23;5.93;;;3.03;;
3781;SDS011;6881;49.962;7.718;2022-10-26T10:52:49;6.13;;;3.50;;
3781;SDS011;6881;49.962;7.718;2022-10-26T10:55:20;5.60;;;3.13;;
3781;SDS011;6881;49.962;7.718;2022-10-26T11:00:38;3.70;;;2.67;;
3781;SDS011;6881;49.962;7.718;2022-10-26T11:11:03;4.27;;;2.93;;
3781;SDS011;6881;49.962;7.718;2022-10-26T11:13:34;4.80;;;2.57;;
3781;SDS011;6881;49.962;7.718;2022-10-26T11:16:04;3.70;;;2.20;;
3781;SDS011;6881;49.962;7.718;2022-10-26T11:18:36;10.73;;;2.70;;
3781;SDS011;6881;49.962;7.718;2022-10-26T11:21:12;3.83;;;2.90;;
3781;SDS011;6881;49.962;7.718;2022-10-26T11:23:47;5.20;;;2.40;;
3781;SDS011;6881;49.962;7.718;2022-10-26T11:26:23;2.83;;;2.20;;
3781;SDS011;6881;49.962;7.718;2022-10-26T11:29:03;3.90;;;2.27;;
3781;SDS011;6881;49.962;7.718;2022-10-26T11:31:44;3.97;;;2.40;;
3781;SDS011;6881;49.962;7.718;2022-10-26T11:34:32;4.37;;;2.20;;
3781;SDS011;6881;49.962;7.718;2022-10-26T11:37:43;6.57;;;2.60;;
3781;SDS011;6881;49.962;7.718;2022-10-26T11:40:15;7.00;;;2.47;;
3781;SDS011;6881;49.962;7.718;2022-10-26T11:45:29;3.67;;;2.00;;
3781;SDS011;6881;49.962;7.718;2022-10-26T11:50:52;3.50;;;2.07;;
3781;SDS011;6881;49.962;7.718;2022-10-26T11:53:39;5.60;;;1.93;;
3781;SDS011;6881;49.962;7.718;2022-10-26T11:56:11;2.30;;;1.60;;
3781;SDS011;6881;49.962;7.718;2022-10-26T11:58:39;2.50;;;1.43;;
3781;SDS011;6881;49.962;7.718;2022-10-26T12:01:09;3.93;;;1.90;;
3781;SDS011;6881;49.962;7.718;2022-10-26T12:03:37;1.90;;;1.60;;
3781;SDS011;6881;49.962;7.718;2022-10-26T12:06:04;1.73;;;1.63;;
3781;SDS011;6881;49.962;7.718;2022-10-26T12:08:32;2.70;;;1.83;;
3781;SDS011;6881;49.962;7.718;2022-10-26T12:13:44;3.80;;;3.43;;
3781;SDS011;6881;49.962;7.718;2022-10-26T12:18:53;5.83;;;1.90;;
3781;SDS011;6881;49.962;7.718;2022-10-26T12:21:24;2.30;;;1.53;;
3781;SDS011;6881;49.962;7.718;2022-10-26T12:23:53;2.40;;;1.87;;
3781;SDS011;6881;49.962;7.718;2022-10-26T12:28:48;3.70;;;1.50;;
3781;SDS011;6881;49.962;7.718;2022-10-26T12:34:01;2.20;;;1.10;;
3781;SDS011;6881;49.962;7.718;2022-10-26T12:39:29;2.40;;;1.30;;
3781;SDS011;6881;49.962;7.718;2022-10-26T12:44:36;3.00;;;1.80;;
3781;SDS011;6881;49.962;7.718;2022-10-26T12:47:06;3.10;;;1.77;;
3781;SDS011;6881;49.962;7.718;2022-10-26T12:55:36;3.57;;;1.77;;
3781;SDS011;6881;49.962;7.718;2022-10-26T13:01:23;4.43;;;3.00;;
3781;SDS011;6881;49.962;7.718;2022-10-26T13:04:07;4.90;;;3.10;;
3781;SDS011;6881;49.962;7.718;2022-10-26T13:09:49;3.43;;;2.57;;
3781;SDS011;6881;49.962;7.718;2022-10-26T13:12:19;2.90;;;2.27;;
3781;SDS011;6881;49.962;7.718;2022-10-26T13:14:59;3.97;;;1.40;;
3781;SDS011;6881;49.962;7.718;2022-10-26T13:17:30;2.80;;;1.87;;
3781;SDS011;6881;49.962;7.718;2022-10-26T13:19:56;2.57;;;2.13;;
3781;SDS011;6881;49.962;7.718;2022-10-26T13:22:24;2.60;;;1.80;;
3781;SDS011;6881;49.962;7.718;2022-10-26T13:24:53;3.03;;;2.03;;
3781;SDS011;6881;49.962;7.718;2022-10-26T13:32:32;2.30;;;2.10;;
3781;SDS011;6881;49.962;7.718;2022-10-26T13:35:00;3.87;;;1.60;;
3781;SDS011;6881;49.962;7.718;2022-10-26T13:37:26;4.77;;;2.03;;
3781;SDS011;6881;49.962;7.718;2022-10-26T13:39:54;5.10;;;1.60;;
3781;SDS011;6881;49.962;7.718;2022-10-26T13:42:24;3.53;;;1.20;;
3781;SDS011;6881;49.962;7.718;2022-10-26T13:44:52;2.43;;;1.30;;
3781;SDS011;6881;49.962;7.718;2022-10-26T13:51:03;3.20;;;1.90;;
3781;SDS011;6881;49.962;7.718;2022-10-26T13:53:21;7.67;;;2.07;;
3781;SDS011;6881;49.962;7.718;2022-10-26T13:55:59;3.90;;;2.03;;
3781;SDS011;6881;49.962;7.718;2022-10-26T13:58:36;2.60;;;1.13;;
3781;SDS011;6881;49.962;7.718;2022-10-26T14:03:45;7.17;;;3.23;;
3781;SDS011;6881;49.962;7.718;2022-10-26T14:06:29;7.30;;;4.50;;
3781;SDS011;6881;49.962;7.718;2022-10-26T14:09:00;8.00;;;5.27;;
3781;SDS011;6881;49.962;7.718;2022-10-26T14:11:32;8.00;;;4.07;;
3781;SDS011;6881;49.962;7.718;2022-10-26T14:13:58;10.03;;;4.40;;
3781;SDS011;6881;49.962;7.718;2022-10-26T14:16:26;12.90;;;3.93;;
3781;SDS011;6881;49.962;7.718;2022-10-26T14:18:52;5.13;;;3.10;;
3781;SDS011;6881;49.962;7.718;2022-10-26T14:21:19;6.57;;;3.13;;
3781;SDS011;6881;49.962;7.718;2022-10-26T14:23:58;3.37;;;2.57;;
3781;SDS011;6881;49.962;7.718;2022-10-26T14:26:28;6.87;;;2.40;;
3781;SDS011;6881;49.962;7.718;2022-10-26T14:28:56;7.73;;;4.10;;
3781;SDS011;6881;49.962;7.718;2022-10-26T14:31:32;6.67;;;5.00;;
3781;SDS011;6881;49.962;7.718;2022-10-26T14:34:00;7.90;;;4.40;;
3781;SDS011;6881;49.962;7.718;2022-10-26T14:38:58;8.27;;;4.20;;
3781;SDS011;6881;49.962;7.718;2022-10-26T14:41:26;3.80;;;2.37;;
3781;SDS011;6881;49.962;7.718;2022-10-26T14:43:52;7.70;;;3.30;;
3781;SDS011;6881;49.962;7.718;2022-10-26T14:46:19;3.37;;;1.53;;
3781;SDS011;6881;49.962;7.718;2022-10-26T14:51:24;2.13;;;1.63;;
3781;SDS011;6881;49.962;7.718;2022-10-26T14:53:55;8.10;;;5.60;;
3781;SDS011;6881;49.962;7.718;2022-10-26T14:59:08;4.60;;;3.27;;
3781;SDS011;6881;49.962;7.718;2022-10-26T15:01:46;6.80;;;3.30;;
3781;SDS011;6881;49.962;7.718;2022-10-26T15:04:21;5.60;;;3.40;;
3781;SDS011;6881;49.962;7.718;2022-10-26T15:09:38;4.87;;;2.77;;
3781;SDS011;6881;49.962;7.718;2022-10-26T15:12:13;7.10;;;3.33;;
3781;SDS011;6881;49.962;7.718;2022-10-26T15:14:43;5.37;;;3.00;;
3781;SDS011;6881;49.962;7.718;2022-10-26T15:17:13;4.77;;;2.27;;
3781;SDS011;6881;49.962;7.718;2022-10-26T15:19:56;3.00;;;1.90;;
3781;SDS011;6881;49.962;7.718;2022-10-26T15:22:25;3.60;;;2.03;;
3781;SDS011;6881;49.962;7.718;2022-10-26T15:24:55;8.03;;;2.30;;
3781;SDS011;6881;49.962;7.718;2022-10-26T15:27:22;2.87;;;1.70;;
3781;SDS011;6881;49.962;7.718;2022-10-26T15:29:49;5.30;;;2.57;;
3781;SDS011;6881;49.962;7.718;2022-10-26T15:32:23;3.70;;;1.70;;
3781;SDS011;6881;49.962;7.718;2022-10-26T15:37:42;4.60;;;2.17;;
3781;SDS011;6881;49.962;7.718;2022-10-26T15:40:08;3.13;;;1.50;;
3781;SDS011;6881;49.962;7.718;2022-10-26T15:42:34;3.83;;;1.90;;
3781;SDS011;6881;49.962;7.718;2022-10-26T15:45:02;5.60;;;1.40;;
3781;SDS011;6881;49.962;7.718;2022-10-26T15:47:30;3.70;;;1.77;;
3781;SDS011;6881;49.962;7.718;2022-10-26T15:49:57;4.67;;;1.63;;
3781;SDS011;6881;49.962;7.718;2022-10-26T15:52:22;5.90;;;1.97;;
3781;SDS011;6881;49.962;7.718;2022-10-26T15:54:48;6.00;;;1.97;;
3781;SDS011;6881;49.962;7.718;2022-10-26T15:57:13;2.57;;;2.00;;
3781;SDS011;6881;49.962;7.718;2022-10-26T15:59:40;7.87;;;2.23;;
3781;SDS011;6881;49.962;7.718;2022-10-26T16:02:12;2.80;;;1.53;;
3781;SDS011;6881;49.962;7.718;2022-10-26T16:04:40;15.17;;;2.30;;
3781;SDS011;6881;49.962;7.718;2022-10-26T16:07:08;3.53;;;2.60;;
3781;SDS011;6881;49.962;7.718;2022-10-26T16:09:37;4.87;;;2.20;;
3781;SDS011;6881;49.962;7.718;2022-10-26T16:12:02;4.27;;;2.10;;
3781;SDS011;6881;49.962;7.718;2022-10-26T16:14:28;4.43;;;2.33;;
3781;SDS011;6881;49.962;7.718;2022-10-26T16:16:53;1.90;;;1.70;;
3781;SDS011;6881;49.962;7.718;2022-10-26T16:19:18;3.70;;;2.10;;
3781;SDS011;6881;49.962;7.718;2022-10-26T16:21:44;4.73;;;1.97;;
3781;SDS011;6881;49.962;7.718;2022-10-26T16:24:09;3.83;;;1.93;;
3781;SDS011;6881;49.962;7.718;2022-10-26T16:26:35;4.53;;;1.90;;
3781;SDS011;6881;49.962;7.718;2022-10-26T16:29:00;5.70;;;2.70;;
3781;SDS011;6881;49.962;7.718;2022-10-26T16:31:26;5.80;;;2.27;;
3781;SDS011;6881;49.962;7.718;2022-10-26T16:33:51;5.00;;;2.57;;
3781;SDS011;6881;49.962;7.718;2022-10-26T16:36:16;4.10;;;2.20;;
3781;SDS011;6881;49.962;7.718;2022-10-26T16:38:42;4.47;;;1.90;;
3781;SDS011;6881;49.962;7.718;2022-10-26T16:43:35;6.30;;;1.70;;
3781;SDS011;6881;49.962;7.718;2022-10-26T16:46:20;4.20;;;1.70;;
3781;SDS011;6881;49.962;7.718;2022-10-26T16:48:46;3.20;;;1.60;;
3781;SDS011;6881;49.962;7.718;2022-10-26T16:51:13;3.60;;;1.60;;
3781;SDS011;6881;49.962;7.718;2022-10-26T16:53:45;4.17;;;2.47;;
3781;SDS011;6881;49.962;7.718;2022-10-26T16:56:12;4.50;;;2.23;;
3781;SDS011;6881;49.962;7.718;2022-10-26T16:58:40;3.23;;;1.83;;
3781;SDS011;6881;49.962;7.718;2022-10-26T17:01:06;3.17;;;1.40;;
3781;SDS011;6881;49.962;7.718;2022-10-26T17:03:32;3.00;;;2.10;;
3781;SDS011;6881;49.962;7.718;2022-10-26T17:06:02;4.90;;;2.10;;
3781;SDS011;6881;49.962;7.718;2022-10-26T17:08:29;6.13;;;2.63;;
3781;SDS011;6881;49.962;7.718;2022-10-26T17:11:00;15.47;;;3.40;;
3781;SDS011;6881;49.962;7.718;2022-10-26T17:13:26;11.43;;;2.40;;
3781;SDS011;6881;49.962;7.718;2022-10-26T17:15:52;6.90;;;2.40;;
3781;SDS011;6881;49.962;7.718;2022-10-26T17:18:17;4.83;;;3.10;;
3781;SDS011;6881;49.962;7.718;2022-10-26T17:20:49;10.57;;;3.80;;
3781;SDS011;6881;49.962;7.718;2022-10-26T17:23:15;12.00;;;5.10;;
3781;SDS011;6881;49.962;7.718;2022-10-26T17:25:40;5.50;;;4.77;;
3781;SDS011;6881;49.962;7.718;2022-10-26T17:28:06;12.17;;;7.97;;
3781;SDS011;6881;49.962;7.718;2022-10-26T17:30:31;17.40;;;9.77;;
3781;SDS011;6881;49.962;7.718;2022-10-26T17:32:56;7.43;;;5.77;;
3781;SDS011;6881;49.962;7.718;2022-10-26T17:35:22;9.93;;;6.70;;
3781;SDS011;6881;49.962;7.718;2022-10-26T17:37:47;14.23;;;7.33;;
3781;SDS011;6881;49.962;7.718;2022-10-26T17:40:12;11.80;;;7.07;;
3781;SDS011;6881;49.962;7.718;2022-10-26T17:42:38;15.23;;;7.43;;
3781;SDS011;6881;49.962;7.718;2022-10-26T17:45:04;11.23;;;6.30;;
3781;SDS011;6881;49.962;7.718;2022-10-26T17:47:30;6.23;;;4.67;;
3781;SDS011;6881;49.962;7.718;2022-10-26T17:49:55;5.73;;;4.20;;
3781;SDS011;6881;49.962;7.718;2022-10-26T17:52:21;5.10;;;4.13;;